Hartland, Minnesota
Current Conditions -  °F | °C
As of 6:53 PM on Saturday 22 Nov 2014 (Local Time) from KAEL Reporting Station
Haze Haze  
Wind Chill: 32°   Ceiling: Unl
Heat Index: 39°   Visibility: 3mi
Dew Point: 39°   Wind: 10mph
Humidity: 100%   Direction: 170°S
Pressure: 29.6"   Gusts: NA
Location:  43.8°N, 93.49°W
Report Text: KAEL 230053Z AUTO 17009KT 3SM BR CLR 04/04 A2960 RMK AO2
Loading
Personal Weather Stations






























Interactive Weather Map New forecast layout! Learn more

10-Day Weather Forecast

Advertisements
Track Severe Weather on mobile